Meteo Giornale » Osservazioni meteo Italia » S Maria Di Leuca

ore: 00:55 - Osservazioni Meteo S Maria Di Leuca
Lat. 39° 49' N Lon. 18° 21' E Alt. 104 metri s.l.m.

poco_nuvoloso Europe/Rome

14 °C

Poco Nuvoloso

Temp. 24 Ore

12 °C

15 °C

Sud

14.8 Km/h

Dew point 11 °C

Umidità 82 %

Visibilità  10 Km

Il sole sorge alle ore 06:59

Il sole tramonta alle ore 16:24

Data e Ora Cielo e Fenomeni T °C DP °C Um. % Pres. hPa Vis. km Vento km/h
Oggi h: 00:55 poco_nuvoloso Poco Nuvoloso 14 11 82 1015 10 S 14.8
Ieri h: 23:55 poco_nuvoloso Poco Nuvoloso 13 12 93 1015 10 S 13
Ieri h: 22:55 poco_nuvoloso Poco Nuvoloso 13 11 87 1015 10 S/SE 7.4
Ieri h: 21:55 poco_nuvoloso Poco Nuvoloso 13 11 87 1015 10 S/SE 11.1
Ieri h: 20:55 poco_nuvoloso Poco Nuvoloso 13 10 81 1015 10 E/SE 9.3
Ieri h: 19:55 poco_nuvoloso Poco Nuvoloso 13 10 81 1016 10 E/SE 14.8
Ieri h: 18:55 nuvoloso Nuvoloso 13 10 81 1016 10 SE 9.3
Ieri h: 17:55 poco_nuvoloso Poco Nuvoloso 14 9 71 1016 10 S/SE 13
Ieri h: 16:55 poco_nuvoloso Poco Nuvoloso 14 9 71 1016 10 S 14.8
Ieri h: 15:55 poco_nuvoloso Poco Nuvoloso 14 9 71 1016 10 S 13
Ieri h: 14:55 poco_nuvoloso Poco Nuvoloso 14 9 71 1016 10 S/SO 11.1
Ieri h: 13:55 poco_nuvoloso Poco Nuvoloso 15 6 54 1016 10 O/SO 11.1
Ieri h: 12:55 poco_nuvoloso Poco Nuvoloso 14 6 58 1016 10 O 16.7
Ieri h: 11:55 poco_nuvoloso Poco Nuvoloso 14 6 58 1017 10 O/NO 20.3
Ieri h: 10:55 poco_nuvoloso Poco Nuvoloso 14 7 62 1017 10 O 22.2
Ieri h: 09:55 sereno Sereno 14 6 58 1017 10 O 22.2
Ieri h: 08:55 sereno Sereno 13 7 66 1017 10 O 13
Ieri h: 07:55 sereno Sereno 12 5 62 1017 10 O/NO 16.7
Ieri h: 06:55 sereno Sereno 12 6 66 1016 10 NO 14.8
Ieri h: 05:55 sereno Sereno 13 9 76 1016 10 O/NO 13
Ieri h: 04:55 sereno Sereno 13 9 76 1016 10 O/NO 14.8
Ieri h: 03:55 sereno Sereno 13 11 87 1016 10 O/NO 14.8
Ieri h: 02:55 sereno Sereno 13 11 87 1016 10 NO 16.7
Ieri h: 01:55 sereno Sereno 13 12 93 1016 10 O/NO 14.8
Ieri h: 00:55 sereno Sereno 14 12 87 1016 10 NO 14.8